< < Back
Terminal Aerodrome Forecast


Current Version              Previous Versions:   1  2  3  4  5  6  7  8  9  

Terminal Aerodrome Forecast

314
FTUS42 KGSP 301459 AAA
TAFCLT
TAF AMD
KCLT 301459Z 3015/3112 03010G16KT P6SM FEW060
     FM302300 04004KT P6SM SKC=

Latest METAR

645
SAUS70 KWBC 310900 RRB
MTRCLT
METAR KCLT 310852Z 35005KT 10SM CLR 06/03 A2995 RMK AO2 SLP140 T00560028
57005


USA.gov is the U.S. government's official web portal to all federal, state and local government web resources and services.